Terminal Aerodrome Forecast
Issued by NWS

Home | Current Version | Previous Version | Graphics & Text | Print | Product List | Glossary On
Versions: 1 2 3 4 5 6 7 8 9 10 11 12 13 14 15 16
000
FTUS42 KMHX 181734
TAFPGV
TAF
KPGV 181734Z 1818/1918 17005KT P6SM VCSH SCT045 BKN150
     FM190100 VRB03KT P6SM BKN250
     FM190600 00000KT 5SM BR SCT002 BKN250
     FM190900 00000KT 2SM BR SCT002 SCT250
     FM191230 00000KT P6SM SCT250
      AMD LTD TO CLD VIS AND WIND=

USA.gov is the U.S. government's official web portal to all federal, state and local government web resources and services.